»·PEaware :: N171MA 3L2-49X

N171MA :: 3L2-49X

FLIGHT INFORMATION

Flight Status: Arrived
Operator: Privately registered:
United States
More flights under this callsign
Pilot: Tim M. (868)
Aircraft: CIRRUS SR-22 TURBO
(S22T)
More flights by this aircraft type
Origin: 3L2 Sky Ranch
United States
Destination: 49X Chemehuevi Valley
United States
More flights between these airports :: More routes between these airports
Route:
File this flight plan on PilotEdge
Remarks:
Altitude:
(Current/Filed)
7,500ft
Speed:
(Current/Filed)
174kts
Departed: 03-Nov-20 08:04 PM
Arrived: 03-Nov-20 08:42 PM
Distance/Time
Traveled:
96nm/0:38
Distance/Time
To Go:
Arrived

Flight Plot

Page will automatically refresh every two minutes.


Map Options




Map Legend


Flown Route
Filed Route
Departure Airport
Arrival Airport
Navaid (VOR, NDB)
Fix

Horizontal Profiles

Position Reports

Time Latitude Longitude Heading Altitude Ground
Speed
03-Nov-20 19:54 35.794986 -115.626448 0 2584ft 0kts
03-Nov-20 19:55 35.794986 -115.626448 0 2584ft 0kts
03-Nov-20 19:56 35.794986 -115.626448 0 2584ft 0kts
03-Nov-20 19:57 35.794987 -115.626448 0 2584ft 0kts
03-Nov-20 19:58 35.795171 -115.626673 24 2584ft 3kts
03-Nov-20 19:59 35.795024 -115.627647 35 2584ft 0kts
03-Nov-20 20:00 35.795024 -115.627647 35 2584ft 0kts
03-Nov-20 20:01 35.795024 -115.627647 35 2584ft 0kts
03-Nov-20 20:02 35.795024 -115.627647 35 2584ft 0kts
03-Nov-20 20:03 35.798520 -115.623493 43 2603ft 93kts
03-Nov-20 20:04 35.820954 -115.596173 77 3659ft 126kts
03-Nov-20 20:05 35.796024 -115.576423 171 4695ft 118kts
03-Nov-20 20:06 35.761127 -115.570296 170 5165ft 130kts
03-Nov-20 20:07 35.724008 -115.558138 147 5705ft 144kts
03-Nov-20 20:08 35.691499 -115.528679 141 6506ft 145kts
03-Nov-20 20:09 35.660083 -115.498547 140 7466ft 137kts
03-Nov-20 20:10 35.629980 -115.469653 140 8438ft 138kts
03-Nov-20 20:11 35.599505 -115.440432 140 9379ft 140kts
03-Nov-20 20:12 35.568369 -115.410609 140 10299ft 144kts
03-Nov-20 20:13 35.533550 -115.377323 141 10490ft 172kts
03-Nov-20 20:14 35.494717 -115.340228 141 10476ft 178kts
03-Nov-20 20:15 35.455277 -115.302585 141 10461ft 180kts
03-Nov-20 20:16 35.415623 -115.264792 141 10447ft 180kts
03-Nov-20 20:17 35.375900 -115.226977 141 10434ft 180kts
03-Nov-20 20:18 35.336143 -115.189179 141 10425ft 180kts
03-Nov-20 20:19 35.296386 -115.151431 141 10419ft 181kts
03-Nov-20 20:20 35.256452 -115.113565 141 10411ft 182kts
03-Nov-20 20:21 35.216518 -115.075742 141 10404ft 182kts
03-Nov-20 20:22 35.176509 -115.037905 141 10396ft 182kts
03-Nov-20 20:23 35.136504 -115.000109 141 10389ft 181kts
03-Nov-20 20:24 35.096602 -114.962462 141 10382ft 181kts
03-Nov-20 20:25 35.056671 -114.924839 141 10398ft 180kts
03-Nov-20 20:26 35.017589 -114.888064 141 10438ft 185kts
03-Nov-20 20:27 34.974237 -114.847350 141 9589ft 202kts
03-Nov-20 20:28 34.929557 -114.805419 141 8682ft 202kts
03-Nov-20 20:29 34.884992 -114.763640 141 7781ft 201kts
03-Nov-20 20:30 34.840913 -114.722391 141 6895ft 199kts
03-Nov-20 20:31 34.797014 -114.681358 141 6015ft 197kts
03-Nov-20 20:32 34.753821 -114.641041 141 5149ft 195kts
03-Nov-20 20:33 34.711023 -114.601154 141 4292ft 193kts
03-Nov-20 20:34 34.668462 -114.561489 142 3442ft 194kts
03-Nov-20 20:35 34.626190 -114.521909 140 2746ft 184kts
03-Nov-20 20:36 34.587271 -114.484999 143 2617ft 174kts
03-Nov-20 20:37 34.549653 -114.450343 145 2697ft 164kts
03-Nov-20 20:38 34.522043 -114.468637 314 2381ft 138kts
03-Nov-20 20:39 34.519847 -114.447623 170 1751ft 132kts
03-Nov-20 20:40 34.508904 -114.431551 351 1428ft 96kts
03-Nov-20 20:41 34.528901 -114.431609 82 617ft 11kts
03-Nov-20 20:42 34.528798 -114.430162 353 617ft 0kts
03-Nov-20 20:43 34.528798 -114.430162 353 617ft 0kts
03-Nov-20 20:44 34.528798 -114.430162 353 617ft 0kts

Navigation Log

Ident Type
Flight plan parsing failed, navigation log unavailable